createdAt,value
2022-09-11T00:01:38.707Z,14.86
2022-09-11T00:06:40.239Z,14.81
2022-09-11T00:11:41.819Z,14.79
2022-09-11T00:16:43.343Z,14.73
2022-09-11T00:21:45.492Z,14.74
2022-09-11T00:26:46.956Z,14.75
2022-09-11T00:31:48.462Z,14.8
2022-09-11T00:36:49.859Z,14.81
2022-09-11T00:41:51.702Z,14.78
2022-09-11T00:46:53.174Z,14.8
2022-09-11T00:51:55.129Z,14.82
2022-09-11T00:56:56.315Z,14.84
2022-09-11T01:01:57.766Z,14.85
2022-09-11T01:06:59.911Z,14.79
2022-09-11T01:12:01.567Z,14.78
2022-09-11T01:17:03.558Z,14.79
2022-09-11T01:22:04.974Z,14.81
2022-09-11T01:27:07.118Z,14.86
2022-09-11T01:32:09.023Z,14.82
2022-09-11T01:37:10.484Z,14.82
2022-09-11T01:42:11.671Z,14.82
2022-09-11T01:47:13.750Z,14.79
2022-09-11T01:52:15.738Z,14.68
2022-09-11T01:57:17.080Z,14.66
2022-09-11T02:02:19.263Z,14.64
2022-09-11T02:07:21.021Z,14.65
2022-09-11T02:12:22.850Z,14.66
2022-09-11T02:17:24.811Z,14.67
2022-09-11T02:22:26.397Z,14.7
2022-09-11T02:27:28.109Z,14.7
2022-09-11T02:32:30.229Z,14.7
2022-09-11T02:37:31.781Z,14.68
2022-09-11T02:42:33.937Z,14.6
2022-09-11T02:47:35.305Z,14.58
2022-09-11T02:52:36.750Z,14.56
2022-09-11T02:57:38.094Z,14.55
2022-09-11T03:52:56.100Z,14.48
2022-09-11T03:57:57.371Z,14.51
2022-09-11T04:08:00.820Z,14.56
2022-09-11T04:13:02.819Z,14.57
2022-09-11T04:18:05.655Z,14.61
2022-09-11T04:23:05.815Z,14.53
2022-09-11T04:28:07.358Z,14.51
2022-09-11T04:33:09.433Z,14.5
2022-09-11T04:38:11.343Z,14.47
2022-09-11T04:43:13.201Z,14.47
2022-09-11T04:48:14.686Z,14.52
2022-09-11T04:53:16.787Z,14.58
2022-09-11T04:58:18.205Z,14.62
2022-09-11T05:03:20.236Z,14.6
2022-09-11T05:08:21.861Z,14.57
2022-09-11T05:13:23.080Z,14.49
2022-09-11T05:18:24.536Z,14.44
2022-09-11T05:23:25.933Z,14.48
2022-09-11T05:28:27.659Z,14.46
2022-09-11T05:33:29.423Z,14.41
2022-09-11T05:38:30.576Z,14.45
2022-09-11T05:43:32.381Z,14.55
2022-09-11T05:48:33.927Z,14.64
2022-09-11T05:53:35.625Z,14.68
2022-09-11T05:58:37.523Z,14.72
2022-09-11T06:03:39.009Z,14.76
2022-09-11T06:08:40.649Z,14.79
2022-09-11T06:13:42.491Z,14.84
2022-09-11T06:18:43.528Z,14.89
2022-09-11T06:23:44.974Z,14.92
2022-09-11T06:28:46.324Z,14.96
2022-09-11T06:33:47.807Z,14.95
2022-09-11T06:38:49.646Z,14.99
2022-09-11T06:43:50.900Z,15.06
2022-09-11T06:48:52.274Z,15.1
2022-09-11T06:53:53.878Z,15.15
2022-09-11T06:58:55.917Z,15.22
2022-09-11T07:03:57.471Z,15.29
2022-09-11T07:08:59.359Z,15.36
2022-09-11T07:14:01.304Z,15.4
2022-09-11T07:19:03.192Z,15.47
2022-09-11T07:24:04.503Z,15.58
2022-09-11T07:29:05.849Z,15.61
2022-09-11T07:34:07.527Z,15.64
2022-09-11T07:39:09.074Z,15.69
2022-09-11T07:44:10.709Z,15.73
2022-09-11T07:49:12.586Z,15.75
2022-09-11T07:54:14.669Z,15.79
2022-09-11T07:59:16.687Z,15.79
2022-09-11T08:04:18.019Z,15.82
2022-09-11T08:09:19.726Z,15.87
2022-09-11T08:14:21.756Z,15.95
2022-09-11T08:19:23.012Z,16.01
2022-09-11T08:24:24.750Z,16.14
2022-09-11T08:29:26.345Z,16.25
2022-09-11T08:34:28.127Z,16.31
2022-09-11T08:39:30.242Z,16.39
2022-09-11T08:44:33.552Z,16.46
2022-09-11T08:49:33.975Z,16.54
2022-09-11T08:54:35.556Z,16.5
2022-09-11T08:59:37.007Z,16.5
2022-09-11T09:04:38.694Z,16.54
2022-09-11T09:09:40.777Z,16.54
2022-09-11T09:14:42.906Z,16.52
2022-09-11T09:19:44.952Z,16.51
2022-09-11T09:24:47.081Z,16.49
2022-09-11T09:29:49.047Z,16.48
2022-09-11T09:34:51.093Z,16.46
2022-09-11T09:39:52.573Z,16.5
2022-09-11T09:44:53.870Z,16.54
2022-09-11T09:49:55.863Z,16.53
2022-09-11T09:54:57.827Z,16.49
2022-09-11T09:59:59.875Z,16.5
2022-09-11T10:05:01.209Z,16.54
2022-09-11T10:10:03.233Z,16.51
2022-09-11T10:15:04.838Z,16.56
2022-09-11T10:20:06.494Z,16.54
2022-09-11T10:25:08.361Z,16.6
2022-09-11T10:30:09.752Z,16.69
2022-09-11T10:35:11.066Z,16.79
2022-09-11T10:40:13.269Z,16.98
2022-09-11T10:45:14.605Z,17.18
2022-09-11T10:50:16.274Z,17.28
2022-09-11T10:55:17.484Z,17.42
2022-09-11T11:00:18.802Z,17.78
2022-09-11T11:05:20.408Z,18.04
2022-09-11T11:10:21.786Z,18.2
2022-09-11T11:15:26.995Z,18.33
2022-09-11T11:20:25.715Z,18.58
2022-09-11T11:25:27.616Z,18.84
2022-09-11T11:25:33.995Z,18.84
2022-09-11T11:30:36.001Z,18.99
2022-09-11T11:35:37.539Z,19.15
2022-09-11T11:40:39.672Z,19.45
2022-09-11T11:45:40.902Z,19.77
2022-09-11T11:50:42.798Z,19.95
2022-09-11T11:55:44.207Z,20.14
2022-09-11T12:00:46.126Z,20.19
2022-09-11T12:05:47.758Z,20.19
2022-09-11T12:10:49.384Z,20.14
2022-09-11T12:15:51.469Z,20.04
2022-09-11T12:20:53.179Z,19.96
2022-09-11T12:25:54.594Z,20
2022-09-11T12:30:56.507Z,20.01
2022-09-11T12:35:58.025Z,20.03
2022-09-11T12:40:59.591Z,20.08
2022-09-11T12:46:01.024Z,20.17
2022-09-11T12:51:02.226Z,20.26
2022-09-11T12:56:03.762Z,20.37
2022-09-11T13:01:05.294Z,20.29
2022-09-11T13:06:06.989Z,20.36
2022-09-11T13:11:08.608Z,20.59
2022-09-11T13:16:09.929Z,20.63
2022-09-11T13:21:11.501Z,20.55
2022-09-11T13:26:13.224Z,20.49
2022-09-11T13:31:14.830Z,20.52
2022-09-11T13:36:16.984Z,20.5
2022-09-11T13:41:18.326Z,20.44
2022-09-11T13:46:20.444Z,20.42
2022-09-11T13:51:22.146Z,20.48
2022-09-11T13:56:23.669Z,20.64
2022-09-11T14:01:25.356Z,20.72
2022-09-11T14:06:27.501Z,20.68
2022-09-11T14:11:29.344Z,20.6
2022-09-11T14:16:30.823Z,20.57
2022-09-11T14:21:32.553Z,20.51
2022-09-11T14:26:34.223Z,20.57
2022-09-11T14:31:36.193Z,20.66
2022-09-11T14:36:38.186Z,20.79
2022-09-11T14:41:39.762Z,20.84
2022-09-11T14:46:41.204Z,20.83
2022-09-11T14:51:42.575Z,20.87
2022-09-11T14:56:44.476Z,20.92
2022-09-11T15:01:46.471Z,20.89
2022-09-11T15:06:47.689Z,20.82
2022-09-11T15:11:49.093Z,20.77
2022-09-11T15:16:51.038Z,20.86
2022-09-11T15:21:52.416Z,20.91
2022-09-11T15:26:54.101Z,20.9
2022-09-11T15:31:55.934Z,20.84
2022-09-11T15:36:58.107Z,20.76
2022-09-11T15:41:59.512Z,20.68
2022-09-11T15:47:01.231Z,20.58
2022-09-11T15:52:03.285Z,20.52
2022-09-11T15:57:04.894Z,20.51
2022-09-11T16:02:06.648Z,20.58
2022-09-11T16:07:08.030Z,20.53
2022-09-11T16:12:09.943Z,20.46
2022-09-11T16:17:11.698Z,20.4
2022-09-11T16:22:13.584Z,20.29
2022-09-11T16:27:14.986Z,20.2
2022-09-11T16:32:16.496Z,20.07
2022-09-11T16:37:17.965Z,19.95
2022-09-11T16:42:19.872Z,19.87
2022-09-11T16:47:21.370Z,19.86
2022-09-11T16:52:22.621Z,19.78
2022-09-11T16:57:23.816Z,19.7
2022-09-11T17:02:25.380Z,19.61
2022-09-11T17:07:27.267Z,19.52
2022-09-11T17:12:28.935Z,19.43
2022-09-11T17:17:30.622Z,19.35
2022-09-11T17:22:32.422Z,19.27
2022-09-11T17:27:33.930Z,19.18
2022-09-11T17:32:35.999Z,19.12
2022-09-11T17:52:42.774Z,18.92
2022-09-11T18:12:49.552Z,18.65
2022-09-11T18:42:59.992Z,18.16
2022-09-11T18:53:02.031Z,17.9
2022-09-11T18:58:03.898Z,17.81
2022-09-11T19:03:05.313Z,17.7
2022-09-11T19:08:06.652Z,17.56
2022-09-11T19:13:08.416Z,17.45
2022-09-11T19:18:09.976Z,17.33
2022-09-11T19:23:11.395Z,17.16
2022-09-11T19:28:12.932Z,17.07
2022-09-11T19:33:14.904Z,16.94
2022-09-11T19:38:16.287Z,16.85
2022-09-11T19:43:18.271Z,16.74
2022-09-11T19:48:20.016Z,16.62
2022-09-11T19:53:21.980Z,16.54
2022-09-11T19:58:24.074Z,16.45
2022-09-11T20:03:25.585Z,16.31
2022-09-11T20:08:27.419Z,16.24
2022-09-11T20:13:29.394Z,16.15
2022-09-11T20:18:31.309Z,16.04
2022-09-11T20:23:32.565Z,16
2022-09-11T20:28:34.103Z,15.9
2022-09-11T20:33:35.985Z,15.84
2022-09-11T20:38:37.963Z,15.77
2022-09-11T20:43:39.771Z,15.6
2022-09-11T20:48:41.172Z,15.56
2022-09-11T20:53:43.179Z,15.49
2022-09-11T20:58:45.209Z,15.33
2022-09-11T21:03:46.912Z,15.31
2022-09-11T21:08:48.514Z,15.26
2022-09-11T21:13:50.153Z,15.17
2022-09-11T21:18:52.230Z,15.12
2022-09-11T21:23:54.483Z,15.04
2022-09-11T21:28:55.750Z,14.91
2022-09-11T21:33:57.266Z,14.86
2022-09-11T21:38:58.752Z,14.78
2022-09-11T21:44:00.546Z,14.67
2022-09-11T21:49:02.327Z,14.63
2022-09-11T21:54:03.692Z,14.59
2022-09-11T21:59:05.203Z,14.51
2022-09-11T22:14:10.491Z,14.37
2022-09-11T22:19:12.344Z,14.34
2022-09-11T22:24:13.877Z,14.3
2022-09-11T22:29:15.372Z,14.24
2022-09-11T22:34:16.843Z,14.23
2022-09-11T22:39:18.482Z,14.2
2022-09-11T22:44:20.683Z,14.14
2022-09-11T22:49:22.024Z,14.13
2022-09-11T22:54:23.209Z,14.03
2022-09-11T22:59:24.708Z,13.99
2022-09-11T23:04:26.451Z,13.96
2022-09-11T23:09:27.863Z,13.9
2022-09-11T23:14:29.506Z,13.86
2022-09-11T23:19:31.094Z,13.81
2022-09-11T23:24:32.210Z,13.76
2022-09-11T23:29:34.131Z,13.69
2022-09-11T23:34:36.206Z,13.63
2022-09-11T23:39:38.450Z,13.52
2022-09-11T23:44:40.314Z,13.42
2022-09-11T23:49:42.171Z,13.38
2022-09-11T23:54:44.163Z,13.29
2022-09-11T23:59:45.780Z,13.22
